Terminal Aerodrome Forecast
Issued by NWS

Home | Current Version | Previous Version | Text Only | Print | Product List | Glossary Off
Versions: 1 2 3 4 5 6 7 8 9 10 11 12 13 14 15 16 17 18 19 20 21

023
FTUS41 KCLE 222335
TAFFDY
TAF
KFDY 222335Z 2300/2324 06012KT P6SM OVC005
     FM230400 07008KT 3SM BR OVC003
     FM231000 12007KT 2SM -RA OVC003
     FM231800 24008KT P6SM SCT005 OVC010=

USA.gov is the U.S. government's official web portal to all federal, state and local government web resources and services.